createdAt,value
2017-08-24T00:01:53.223Z,81.80
2017-08-24T00:04:20.768Z,82.90
2017-08-24T00:06:48.308Z,82.70
2017-08-24T00:09:15.955Z,83.30
2017-08-24T00:11:43.506Z,83.10
2017-08-24T00:14:10.964Z,83.80
2017-08-24T00:16:38.484Z,83.80
2017-08-24T00:19:06.027Z,83.30
2017-08-24T00:21:33.583Z,83.30
2017-08-24T00:24:01.321Z,82.10
2017-08-24T00:26:28.772Z,82.90
2017-08-24T00:28:56.300Z,82.80
2017-08-24T00:31:23.949Z,82.90
2017-08-24T00:33:51.502Z,83.00
2017-08-24T00:36:19.040Z,83.70
2017-08-24T00:38:46.684Z,84.00
2017-08-24T00:41:14.148Z,85.80
2017-08-24T00:43:41.603Z,86.50
2017-08-24T00:46:09.103Z,87.00
2017-08-24T00:48:36.564Z,87.50
2017-08-24T00:51:04.019Z,88.00
2017-08-24T00:53:31.531Z,88.50
2017-08-24T00:55:58.997Z,88.80
2017-08-24T00:58:26.625Z,88.90
2017-08-24T01:00:54.083Z,90.10
2017-08-24T01:03:21.607Z,90.40
2017-08-24T01:05:49.247Z,90.60
2017-08-24T01:08:16.796Z,90.80
2017-08-24T01:10:45.056Z,91.60
2017-08-24T01:13:12.607Z,91.60
2017-08-24T01:15:40.059Z,92.40
2017-08-24T01:18:07.522Z,92.50
2017-08-24T01:20:35.227Z,93.30
2017-08-24T01:23:02.687Z,93.80
2017-08-24T01:25:30.145Z,94.50
2017-08-24T01:27:57.652Z,95.10
2017-08-24T01:30:25.195Z,95.30
2017-08-24T01:32:52.669Z,95.50
2017-08-24T01:35:20.189Z,95.80
2017-08-24T01:37:47.644Z,96.00
2017-08-24T01:40:15.167Z,96.30
2017-08-24T01:42:42.812Z,96.30
2017-08-24T01:45:10.364Z,97.00
2017-08-24T01:47:37.897Z,96.80
2017-08-24T01:50:05.551Z,97.10
2017-08-24T01:52:33.098Z,97.60
2017-08-24T01:55:00.558Z,97.60
2017-08-24T01:57:28.071Z,97.90
2017-08-24T01:59:55.539Z,98.10
2017-08-24T02:02:23.056Z,98.40
2017-08-24T02:04:50.601Z,98.60
2017-08-24T02:07:18.152Z,98.80
2017-08-24T02:09:45.689Z,98.70
2017-08-24T02:12:13.239Z,98.70
2017-08-24T02:14:40.779Z,98.70
2017-08-24T02:17:08.420Z,99.00
2017-08-24T02:19:35.973Z,98.70
2017-08-24T02:22:03.508Z,98.80
2017-08-24T02:24:31.001Z,98.60
2017-08-24T02:26:58.855Z,98.50
2017-08-24T02:29:26.347Z,98.50
2017-08-24T02:31:53.988Z,98.50
2017-08-24T02:34:21.536Z,98.50
2017-08-24T02:36:48.995Z,98.70
2017-08-24T02:39:17.230Z,98.60
2017-08-24T02:41:44.692Z,98.60
2017-08-24T02:44:12.222Z,98.60
2017-08-24T02:46:39.765Z,98.70
2017-08-24T02:49:07.311Z,99.10
2017-08-24T02:51:34.847Z,99.20
2017-08-24T02:54:02.391Z,98.90
2017-08-24T02:56:29.935Z,99.20
2017-08-24T02:58:57.484Z,98.80
2017-08-24T03:01:25.031Z,98.70
2017-08-24T03:03:52.527Z,98.80
2017-08-24T03:06:19.992Z,98.80
2017-08-24T03:08:47.447Z,98.60
2017-08-24T03:11:14.994Z,98.60
2017-08-24T03:13:42.535Z,98.80
2017-08-24T03:16:09.997Z,98.80
2017-08-24T03:18:37.528Z,98.80
2017-08-24T03:21:05.068Z,99.00
2017-08-24T03:23:32.868Z,99.20
2017-08-24T03:26:00.340Z,99.50
2017-08-24T03:28:27.793Z,99.20
2017-08-24T03:30:55.248Z,99.20
2017-08-24T03:33:22.787Z,99.10
2017-08-24T03:35:50.328Z,99.10
2017-08-24T03:38:17.872Z,99.10
2017-08-24T03:40:45.337Z,99.10
2017-08-24T03:43:12.799Z,99.20
2017-08-24T03:45:40.263Z,99.20
2017-08-24T03:48:07.841Z,99.20
2017-08-24T03:50:35.388Z,99.20
2017-08-24T03:53:03.643Z,99.30
2017-08-24T03:55:31.187Z,99.30
2017-08-24T03:57:58.724Z,99.60
2017-08-24T04:00:26.260Z,99.80
2017-08-24T04:02:53.815Z,99.90
2017-08-24T04:05:21.467Z,99.60
2017-08-24T04:07:49.003Z,99.70
2017-08-24T04:10:16.468Z,99.70
2017-08-24T04:12:44.808Z,99.40
2017-08-24T04:15:12.271Z,99.40
2017-08-24T04:17:39.796Z,99.20
2017-08-24T04:20:07.344Z,99.00
2017-08-24T04:22:34.801Z,99.10
2017-08-24T04:25:02.320Z,98.80
2017-08-24T04:27:29.867Z,98.70
2017-08-24T04:29:57.408Z,98.50
2017-08-24T04:32:24.956Z,98.30
2017-08-24T04:34:52.732Z,98.70
2017-08-24T04:37:20.244Z,98.50
2017-08-24T04:39:47.695Z,98.60
2017-08-24T04:42:15.160Z,98.50
2017-08-24T04:44:42.671Z,98.40
2017-08-24T04:47:10.211Z,98.50
2017-08-24T04:49:37.676Z,98.40
2017-08-24T04:52:05.184Z,98.50
2017-08-24T04:54:32.649Z,98.50
2017-08-24T04:57:00.900Z,98.40
2017-08-24T04:59:28.639Z,98.40
2017-08-24T05:01:56.191Z,98.30
2017-08-24T05:04:23.646Z,98.20
2017-08-24T05:06:51.108Z,97.90
2017-08-24T05:09:18.719Z,98.00
2017-08-24T05:11:46.188Z,97.90
2017-08-24T05:14:13.648Z,98.10
2017-08-24T05:16:41.103Z,98.00
2017-08-24T05:19:08.689Z,97.90
2017-08-24T05:21:36.233Z,98.10
2017-08-24T05:24:03.692Z,98.40
2017-08-24T05:26:31.184Z,98.40
2017-08-24T05:28:58.654Z,98.10
2017-08-24T05:31:26.112Z,97.90
2017-08-24T05:33:53.843Z,98.00
2017-08-24T05:36:21.324Z,97.90
2017-08-24T05:38:48.884Z,98.20
2017-08-24T05:41:16.482Z,97.90
2017-08-24T05:43:43.946Z,97.80
2017-08-24T05:46:11.396Z,97.40
2017-08-24T05:48:39.116Z,97.40
2017-08-24T05:51:06.568Z,97.30
2017-08-24T05:53:34.088Z,97.00
2017-08-24T05:56:01.587Z,97.00
2017-08-24T05:58:29.057Z,96.80
2017-08-24T06:00:56.508Z,96.80
2017-08-24T06:03:24.064Z,96.60
2017-08-24T06:05:51.604Z,96.80
2017-08-24T06:08:19.151Z,97.10
2017-08-24T06:10:46.635Z,96.40
2017-08-24T06:13:14.128Z,96.60
2017-08-24T06:15:41.629Z,96.90
2017-08-24T06:18:09.088Z,96.50
2017-08-24T06:20:36.544Z,96.70
2017-08-24T06:23:04.105Z,96.60
2017-08-24T06:25:31.563Z,96.60
2017-08-24T06:27:59.060Z,96.80
2017-08-24T06:30:26.547Z,96.30
2017-08-24T06:32:54.070Z,96.50
2017-08-24T06:35:24.633Z,96.60
2017-08-24T06:37:52.372Z,96.30
2017-08-24T06:40:19.828Z,96.40
2017-08-24T06:42:47.295Z,96.10
2017-08-24T06:45:14.860Z,95.80
2017-08-24T06:47:42.405Z,95.60
2017-08-24T06:50:09.959Z,95.50
2017-08-24T06:52:37.495Z,95.80
2017-08-24T06:55:05.136Z,95.60
2017-08-24T06:57:32.596Z,95.40
2017-08-24T07:00:00.120Z,95.90
2017-08-24T07:02:27.668Z,95.60
2017-08-24T07:04:55.211Z,96.00
2017-08-24T07:07:23.478Z,95.30
2017-08-24T07:09:51.011Z,95.30
2017-08-24T07:12:18.468Z,95.30
2017-08-24T07:14:46.716Z,95.80
2017-08-24T07:17:14.365Z,95.80
2017-08-24T07:19:41.904Z,95.60
2017-08-24T07:22:09.367Z,96.00
2017-08-24T07:24:36.883Z,95.90
2017-08-24T07:27:04.436Z,96.30
2017-08-24T07:29:32.312Z,96.20
2017-08-24T07:31:59.771Z,95.90
2017-08-24T07:34:27.260Z,95.80
2017-08-24T07:36:54.909Z,95.80
2017-08-24T07:39:22.373Z,96.30
2017-08-24T07:41:50.612Z,95.60
2017-08-24T07:44:18.155Z,95.50
2017-08-24T07:46:45.899Z,95.40
2017-08-24T07:49:13.448Z,95.30
2017-08-24T07:51:40.995Z,94.70
2017-08-24T07:54:08.535Z,95.20
2017-08-24T07:56:35.994Z,94.60
2017-08-24T07:59:03.450Z,94.80
2017-08-24T08:01:30.969Z,94.30
2017-08-24T08:03:58.503Z,94.20
2017-08-24T08:06:25.972Z,94.40
2017-08-24T08:08:53.447Z,94.20
2017-08-24T08:11:20.932Z,94.10
2017-08-24T08:13:48.391Z,94.10
2017-08-24T08:16:15.913Z,94.10
2017-08-24T08:18:43.379Z,93.80
2017-08-24T08:21:10.839Z,93.70
2017-08-24T08:23:38.299Z,94.10
2017-08-24T08:26:05.783Z,93.60
2017-08-24T08:28:33.421Z,93.30
2017-08-24T08:31:00.986Z,93.30
2017-08-24T08:33:28.507Z,92.80
2017-08-24T08:35:55.987Z,93.00
2017-08-24T08:38:23.504Z,92.90
2017-08-24T08:40:51.043Z,92.50
2017-08-24T08:43:18.511Z,92.40
2017-08-24T08:45:45.971Z,92.00
2017-08-24T08:48:13.468Z,91.90
2017-08-24T08:50:40.931Z,91.80
2017-08-24T08:53:08.385Z,91.90
2017-08-24T08:55:35.887Z,91.20
2017-08-24T08:58:03.409Z,91.10
2017-08-24T09:00:30.863Z,91.40
2017-08-24T09:02:58.520Z,91.00
2017-08-24T09:05:25.972Z,91.20
2017-08-24T09:07:53.433Z,90.90
2017-08-24T09:10:20.951Z,90.80
2017-08-24T09:12:48.495Z,90.90
2017-08-24T09:15:16.033Z,90.00
2017-08-24T09:17:43.500Z,88.80
2017-08-24T09:20:11.020Z,89.30
2017-08-24T09:22:38.564Z,87.50
2017-08-24T09:25:06.105Z,88.70
2017-08-24T09:27:33.651Z,88.40
2017-08-24T09:30:01.192Z,88.70
2017-08-24T09:32:28.722Z,87.40
2017-08-24T09:34:56.179Z,88.00
2017-08-24T09:37:23.635Z,88.20
2017-08-24T09:39:51.127Z,87.00
2017-08-24T09:42:18.592Z,87.30
2017-08-24T09:44:46.143Z,85.80
2017-08-24T09:47:13.688Z,87.10
2017-08-24T09:49:41.242Z,87.60
2017-08-24T09:52:08.771Z,87.70
2017-08-24T09:54:36.324Z,87.60
2017-08-24T09:57:03.867Z,86.60
2017-08-24T09:59:31.508Z,86.30
2017-08-24T10:01:59.056Z,87.30
2017-08-24T10:04:26.696Z,84.80
2017-08-24T10:06:58.336Z,83.00
2017-08-24T10:09:25.792Z,83.40
2017-08-24T10:11:53.271Z,82.60
2017-08-24T10:14:20.743Z,82.80
2017-08-24T10:16:48.200Z,81.80
2017-08-24T10:19:15.675Z,81.70
2017-08-24T10:21:43.136Z,83.00
2017-08-24T10:24:10.628Z,82.40
2017-08-24T10:26:38.175Z,83.30
2017-08-24T10:29:05.812Z,82.90
2017-08-24T10:31:33.212Z,83.00
2017-08-24T10:34:00.708Z,82.60
2017-08-24T10:36:28.244Z,82.90
2017-08-24T10:38:55.888Z,82.60
2017-08-24T10:41:23.356Z,83.40
2017-08-24T10:43:50.849Z,83.10
2017-08-24T10:46:18.315Z,81.70
2017-08-24T10:48:45.865Z,82.60
2017-08-24T10:51:13.343Z,83.10
2017-08-24T10:53:40.844Z,82.90
2017-08-24T10:56:08.300Z,82.00
2017-08-24T10:58:36.752Z,81.40
2017-08-24T11:01:04.295Z,81.40
2017-08-24T11:03:31.752Z,80.40
2017-08-24T11:05:59.480Z,81.30
2017-08-24T11:08:27.032Z,82.10
2017-08-24T11:10:54.576Z,81.30
2017-08-24T11:13:22.217Z,80.40
2017-08-24T11:15:49.772Z,79.60
2017-08-24T11:18:18.023Z,80.20
2017-08-24T11:20:45.511Z,80.20
2017-08-24T11:23:13.008Z,79.30
2017-08-24T11:25:40.552Z,79.40
2017-08-24T11:28:08.200Z,78.80
2017-08-24T11:30:35.740Z,74.70
2017-08-24T11:33:03.292Z,72.70
2017-08-24T11:35:30.748Z,74.90
2017-08-24T11:37:58.426Z,72.10
2017-08-24T11:40:25.972Z,73.30
2017-08-24T11:42:53.524Z,73.60
2017-08-24T11:45:21.171Z,74.10
2017-08-24T11:47:48.627Z,75.60
2017-08-24T11:50:16.153Z,77.10
2017-08-24T11:52:43.787Z,77.30
2017-08-24T11:55:11.368Z,77.60
2017-08-24T11:57:38.824Z,75.80
2017-08-24T12:00:06.300Z,71.50
2017-08-24T12:02:33.788Z,67.70
2017-08-24T12:05:01.336Z,67.70
2017-08-24T12:07:28.876Z,69.40
2017-08-24T12:09:56.416Z,69.80
2017-08-24T12:12:23.876Z,70.60
2017-08-24T12:14:51.405Z,71.00
2017-08-24T12:17:18.860Z,70.30
2017-08-24T12:19:46.380Z,65.70
2017-08-24T12:22:14.028Z,66.10
2017-08-24T12:24:41.500Z,64.50
2017-08-24T12:27:08.959Z,60.60
2017-08-24T12:29:36.449Z,58.80
2017-08-24T12:32:04.005Z,56.90
2017-08-24T12:34:32.236Z,56.20
2017-08-24T12:36:59.913Z,56.00
2017-08-24T12:39:27.368Z,55.40
2017-08-24T12:41:54.909Z,54.60
2017-08-24T12:44:22.443Z,55.90
2017-08-24T12:46:49.984Z,55.90
2017-08-24T12:49:17.520Z,54.70
2017-08-24T12:51:45.053Z,56.60
2017-08-24T12:54:12.514Z,57.00
2017-08-24T12:56:40.056Z,57.50
2017-08-24T12:59:07.795Z,57.00
2017-08-24T13:01:35.343Z,55.00
2017-08-24T13:04:02.892Z,54.10
2017-08-24T13:06:30.658Z,53.80
2017-08-24T13:08:58.120Z,53.30
2017-08-24T13:11:25.581Z,51.90
2017-08-24T13:13:53.265Z,51.80
2017-08-24T13:16:20.724Z,50.80
2017-08-24T13:18:48.251Z,48.30
2017-08-24T13:21:16.509Z,48.40
2017-08-24T13:23:44.167Z,48.20
2017-08-24T13:26:11.616Z,46.80
2017-08-24T13:28:39.244Z,44.90
2017-08-24T13:31:06.704Z,44.20
2017-08-24T13:33:34.167Z,44.60
2017-08-24T13:36:01.636Z,44.80
2017-08-24T13:38:29.112Z,42.30
2017-08-24T13:40:56.571Z,41.30
2017-08-24T13:43:24.301Z,42.20
2017-08-24T13:45:51.843Z,40.40
2017-08-24T13:48:19.384Z,38.60
2017-08-24T13:50:47.136Z,39.30
2017-08-24T13:53:14.595Z,38.40
2017-08-24T13:55:42.048Z,39.80
2017-08-24T13:58:09.559Z,40.80
2017-08-24T14:00:37.028Z,41.20
2017-08-24T14:03:04.480Z,43.70
2017-08-24T14:05:31.988Z,43.00
2017-08-24T14:07:59.531Z,43.60
2017-08-24T14:10:27.068Z,45.30
2017-08-24T14:12:54.528Z,46.00
2017-08-24T14:15:22.013Z,48.50
2017-08-24T14:17:49.485Z,47.80
2017-08-24T14:20:17.039Z,49.30
2017-08-24T14:22:44.583Z,51.30
2017-08-24T14:25:12.332Z,50.60
2017-08-24T14:27:39.876Z,50.80
2017-08-24T14:30:07.336Z,51.00
2017-08-24T14:32:35.064Z,50.90
2017-08-24T14:35:02.603Z,48.20
2017-08-24T14:37:30.148Z,47.50
2017-08-24T14:39:57.697Z,47.10
2017-08-24T14:42:25.443Z,47.10
2017-08-24T14:44:52.895Z,49.00
2017-08-24T14:47:20.347Z,48.40
2017-08-24T14:49:48.692Z,48.30
2017-08-24T14:52:16.143Z,48.20
2017-08-24T14:54:43.672Z,49.10
2017-08-24T14:57:11.170Z,49.60
2017-08-24T14:59:38.607Z,50.70
2017-08-24T15:02:06.102Z,49.30
2017-08-24T15:04:33.843Z,49.70
2017-08-24T15:07:01.392Z,48.50
2017-08-24T15:09:28.844Z,47.50
2017-08-24T15:11:56.367Z,47.70
2017-08-24T15:14:23.823Z,47.50
2017-08-24T15:16:51.363Z,47.30
2017-08-24T15:19:18.961Z,47.80
2017-08-24T15:21:46.407Z,48.30
2017-08-24T15:24:13.897Z,48.40
2017-08-24T15:26:41.432Z,49.30
2017-08-24T15:29:08.971Z,51.90
2017-08-24T15:31:36.621Z,50.00
2017-08-24T15:34:04.084Z,51.00
2017-08-24T15:36:31.605Z,50.40
2017-08-24T15:38:59.248Z,49.80
2017-08-24T15:41:26.704Z,49.10
2017-08-24T15:43:54.155Z,48.60
2017-08-24T15:46:21.677Z,48.50
2017-08-24T15:48:49.425Z,48.50
2017-08-24T15:51:16.876Z,47.20
2017-08-24T15:53:44.411Z,46.70
2017-08-24T15:56:11.959Z,45.00
2017-08-24T15:58:39.495Z,45.50
2017-08-24T16:01:07.040Z,46.20
2017-08-24T16:03:34.584Z,47.60
2017-08-24T16:06:02.040Z,46.90
2017-08-24T16:08:29.572Z,46.00
2017-08-24T16:10:57.111Z,47.20
2017-08-24T16:13:24.753Z,47.80
2017-08-24T16:15:52.403Z,48.20
2017-08-24T16:18:19.951Z,48.90
2017-08-24T16:20:47.417Z,49.20
2017-08-24T16:23:14.967Z,49.40
2017-08-24T16:25:42.428Z,50.50
2017-08-24T16:28:09.900Z,51.80
2017-08-24T16:30:37.560Z,51.20
2017-08-24T16:33:05.109Z,51.50
2017-08-24T16:35:32.648Z,51.70
2017-08-24T16:38:00.292Z,51.90
2017-08-24T16:40:27.745Z,52.10
2017-08-24T16:42:55.200Z,52.30
2017-08-24T16:45:22.661Z,52.70
2017-08-24T16:47:50.114Z,51.50
2017-08-24T16:50:17.704Z,51.50
2017-08-24T16:52:45.243Z,51.10
2017-08-24T16:55:12.791Z,50.90
2017-08-24T16:57:40.436Z,50.00
2017-08-24T17:00:07.896Z,50.70
2017-08-24T17:02:35.428Z,48.90
2017-08-24T17:05:02.967Z,49.40
2017-08-24T17:07:30.425Z,49.80
2017-08-24T17:09:57.951Z,51.00
2017-08-24T17:12:25.483Z,51.80
2017-08-24T17:14:53.050Z,53.10
2017-08-24T17:17:20.563Z,53.00
2017-08-24T17:19:48.016Z,53.10
2017-08-24T17:22:15.560Z,53.60
2017-08-24T17:24:43.107Z,54.80
2017-08-24T17:27:10.647Z,55.60
2017-08-24T17:29:38.110Z,56.50
2017-08-24T17:32:05.749Z,56.60
2017-08-24T17:34:33.195Z,57.40
2017-08-24T17:37:01.448Z,58.60
2017-08-24T17:39:29.091Z,59.10
2017-08-24T17:41:56.543Z,58.50
2017-08-24T17:44:24.783Z,59.10
2017-08-24T17:46:52.343Z,59.10
2017-08-24T17:49:19.879Z,59.30
2017-08-24T17:51:47.419Z,59.80
2017-08-24T17:54:14.964Z,60.10
2017-08-24T17:56:42.439Z,61.90
2017-08-24T17:59:09.889Z,61.20
2017-08-24T18:01:37.490Z,61.80
2017-08-24T18:04:05.033Z,62.10
2017-08-24T18:06:32.488Z,64.00
2017-08-24T18:09:00.022Z,63.40
2017-08-24T18:11:27.477Z,63.40
2017-08-24T18:13:54.931Z,64.70
2017-08-24T18:16:22.646Z,64.40
2017-08-24T18:18:50.095Z,64.90
2017-08-24T18:21:18.364Z,65.20
2017-08-24T18:23:45.875Z,65.20
2017-08-24T18:26:13.336Z,66.40
2017-08-24T18:28:40.876Z,65.90
2017-08-24T18:31:08.501Z,66.20
2017-08-24T18:33:35.952Z,66.30
2017-08-24T18:36:03.403Z,66.40
2017-08-24T18:38:31.023Z,68.40
2017-08-24T18:40:58.489Z,69.00
2017-08-24T18:43:26.032Z,69.00
2017-08-24T18:45:53.635Z,67.60
2017-08-24T18:48:21.105Z,69.00
2017-08-24T18:50:48.559Z,69.90
2017-08-24T18:53:16.320Z,69.30
2017-08-24T18:55:43.859Z,71.60
2017-08-24T18:58:11.405Z,71.80
2017-08-24T19:00:38.943Z,72.40
2017-08-24T19:03:06.483Z,72.20
2017-08-24T19:05:34.032Z,74.20
2017-08-24T19:08:01.496Z,74.10
2017-08-24T19:10:28.953Z,74.30
2017-08-24T19:12:56.460Z,75.20
2017-08-24T19:15:24.086Z,75.80
2017-08-24T19:17:51.540Z,77.60
2017-08-24T19:20:19.088Z,77.70
2017-08-24T19:22:46.748Z,77.70
2017-08-24T19:25:14.275Z,77.20
2017-08-24T19:27:41.773Z,77.10
2017-08-24T19:30:09.243Z,77.50
2017-08-24T19:32:36.699Z,78.00
2017-08-24T19:35:04.156Z,78.20
2017-08-24T19:37:31.792Z,78.20
2017-08-24T19:39:59.243Z,77.40
2017-08-24T19:42:27.471Z,76.60
2017-08-24T19:44:54.944Z,76.50
2017-08-24T19:47:22.476Z,75.10
2017-08-24T19:49:50.011Z,77.60
2017-08-24T19:52:17.471Z,78.40
2017-08-24T19:54:45.004Z,78.80
2017-08-24T19:57:12.746Z,78.90
2017-08-24T19:59:40.204Z,78.90
2017-08-24T20:02:07.736Z,79.30
2017-08-24T20:04:35.204Z,79.00
2017-08-24T20:07:02.719Z,77.80
2017-08-24T20:09:30.176Z,78.50
2017-08-24T20:11:57.793Z,78.20
2017-08-24T20:14:25.376Z,78.20
2017-08-24T20:16:52.892Z,77.60
2017-08-24T20:19:20.639Z,78.60
2017-08-24T20:21:48.183Z,77.30
2017-08-24T20:24:15.733Z,78.10
2017-08-24T20:26:43.216Z,79.70
2017-08-24T20:29:10.776Z,80.40
2017-08-24T20:31:38.261Z,80.70
2017-08-24T20:34:05.801Z,81.40
2017-08-24T20:36:33.256Z,79.60
2017-08-24T20:39:00.895Z,80.70
2017-08-24T20:41:28.428Z,81.20
2017-08-24T20:43:55.883Z,81.00
2017-08-24T20:46:23.428Z,80.90
2017-08-24T20:48:50.892Z,81.00
2017-08-24T20:51:18.380Z,81.00
2017-08-24T20:53:45.837Z,81.40
2017-08-24T20:56:13.300Z,81.40
2017-08-24T20:58:40.752Z,81.40
2017-08-24T21:01:08.264Z,81.90
2017-08-24T21:03:35.731Z,81.70
2017-08-24T21:06:03.243Z,82.70
2017-08-24T21:08:30.698Z,83.10
2017-08-24T21:10:58.432Z,83.00
2017-08-24T21:13:25.977Z,83.10
2017-08-24T21:15:53.548Z,83.20
2017-08-24T21:18:21.004Z,83.70
2017-08-24T21:20:48.516Z,84.00
2017-08-24T21:23:16.019Z,83.50
2017-08-24T21:25:43.495Z,82.80
2017-08-24T21:28:11.047Z,83.60
2017-08-24T21:30:38.787Z,83.60
2017-08-24T21:33:06.240Z,83.30
2017-08-24T21:35:33.718Z,83.50
2017-08-24T21:38:01.215Z,83.10
2017-08-24T21:40:28.755Z,82.90
2017-08-24T21:42:56.304Z,82.90
2017-08-24T21:45:23.844Z,82.80
2017-08-24T21:47:51.388Z,83.60
2017-08-24T21:50:18.934Z,83.90
2017-08-24T21:52:46.477Z,84.90
2017-08-24T21:55:14.024Z,84.80
2017-08-24T21:57:42.351Z,85.80
2017-08-24T22:00:09.804Z,84.80
2017-08-24T22:02:38.284Z,86.00
2017-08-24T22:05:05.836Z,86.10
2017-08-24T22:07:33.287Z,85.60
2017-08-24T22:10:00.916Z,85.80
2017-08-24T22:12:28.468Z,85.90
2017-08-24T22:14:55.927Z,86.70
2017-08-24T22:17:23.449Z,86.10
2017-08-24T22:19:50.993Z,86.90
2017-08-24T22:22:18.442Z,88.20
2017-08-24T22:24:46.078Z,89.10
2017-08-24T22:27:13.527Z,88.70
2017-08-24T22:29:41.067Z,89.10
2017-08-24T22:32:08.528Z,89.10
2017-08-24T22:34:36.044Z,89.30
2017-08-24T22:37:03.796Z,89.30
2017-08-24T22:39:31.243Z,89.90
2017-08-24T22:41:58.775Z,90.10
2017-08-24T22:44:26.419Z,90.10
2017-08-24T22:46:53.892Z,90.40
2017-08-24T22:49:21.415Z,90.80
2017-08-24T22:51:48.947Z,90.80
2017-08-24T22:54:22.061Z,91.00
2017-08-24T22:56:55.364Z,91.40
2017-08-24T22:59:28.413Z,91.10
2017-08-24T23:02:01.612Z,91.20
2017-08-24T23:04:29.191Z,91.40
2017-08-24T23:06:56.736Z,91.30
2017-08-24T23:09:24.191Z,91.40
2017-08-24T23:11:52.639Z,91.60
2017-08-24T23:14:20.098Z,91.50
2017-08-24T23:16:47.552Z,92.10
2017-08-24T23:19:15.277Z,91.70
2017-08-24T23:21:42.743Z,91.70
2017-08-24T23:24:10.201Z,91.70
2017-08-24T23:26:37.675Z,92.10
2017-08-24T23:29:05.127Z,91.50
2017-08-24T23:31:32.580Z,91.50
2017-08-24T23:34:00.051Z,91.90
2017-08-24T23:36:27.508Z,92.10
2017-08-24T23:38:55.040Z,92.00
2017-08-24T23:41:22.584Z,92.10
2017-08-24T23:43:50.040Z,92.00
2017-08-24T23:46:18.283Z,92.30
2017-08-24T23:48:45.830Z,92.30
2017-08-24T23:51:13.288Z,92.10
2017-08-24T23:53:40.755Z,92.00
2017-08-24T23:56:08.216Z,92.30
2017-08-24T23:58:35.680Z,92.00
